createdAt,value
2019-02-17T00:01:54.554Z,70.05
2019-02-17T00:04:26.344Z,69.72
2019-02-17T00:06:58.024Z,69.66
2019-02-17T00:09:29.756Z,69.30
2019-02-17T00:12:01.485Z,70.02
2019-02-17T00:14:32.861Z,69.93
2019-02-17T00:17:04.350Z,70.21
2019-02-17T00:19:35.645Z,70.53
2019-02-17T00:22:06.955Z,70.21
2019-02-17T00:24:38.715Z,69.63
2019-02-17T00:27:10.291Z,69.37
2019-02-17T00:29:42.281Z,69.93
2019-02-17T00:32:13.786Z,70.10
2019-02-17T00:34:45.515Z,70.01
2019-02-17T00:37:16.843Z,70.01
2019-02-17T00:39:48.810Z,70.04
2019-02-17T00:42:20.513Z,69.66
2019-02-17T00:44:51.907Z,70.02
2019-02-17T00:47:23.312Z,69.69
2019-02-17T00:49:54.623Z,69.44
2019-02-17T00:52:25.905Z,69.57
2019-02-17T00:54:57.929Z,69.58
2019-02-17T00:57:29.901Z,69.88
2019-02-17T01:00:01.795Z,69.90
2019-02-17T01:02:33.966Z,70.15
2019-02-17T01:05:05.563Z,70.16
2019-02-17T01:07:36.886Z,70.38
2019-02-17T01:10:08.510Z,70.16
2019-02-17T01:12:39.765Z,70.79
2019-02-17T01:15:11.712Z,71.06
2019-02-17T01:17:43.395Z,70.80
2019-02-17T01:20:15.011Z,71.11
2019-02-17T01:22:46.328Z,70.99
2019-02-17T01:25:18.994Z,71.24
2019-02-17T01:27:50.683Z,71.24
2019-02-17T01:30:23.140Z,71.41
2019-02-17T01:32:54.612Z,71.34
2019-02-17T01:35:26.211Z,71.34
2019-02-17T01:37:58.380Z,71.34
2019-02-17T01:40:30.023Z,71.04
2019-02-17T01:43:01.287Z,71.54
2019-02-17T01:45:32.839Z,71.80
2019-02-17T01:48:04.325Z,71.86
2019-02-17T01:50:35.687Z,71.32
2019-02-17T01:53:07.114Z,71.70
2019-02-17T01:55:38.513Z,71.01
2019-02-17T01:58:09.796Z,71.42
2019-02-17T02:00:41.273Z,71.24
2019-02-17T02:03:12.904Z,71.05
2019-02-17T02:05:44.777Z,71.05
2019-02-17T02:08:16.049Z,71.44
2019-02-17T02:10:47.363Z,72.35
2019-02-17T02:13:19.049Z,72.00
2019-02-17T02:15:51.023Z,72.28
2019-02-17T02:18:22.798Z,72.44
2019-02-17T02:20:55.066Z,73.57
2019-02-17T02:23:26.814Z,72.30
2019-02-17T02:25:58.671Z,73.33
2019-02-17T02:28:30.047Z,72.76
2019-02-17T02:31:01.946Z,73.74
2019-02-17T02:33:33.925Z,73.42
2019-02-17T02:36:05.318Z,72.88
2019-02-17T02:38:36.770Z,73.06
2019-02-17T02:41:08.127Z,72.90
2019-02-17T02:43:40.059Z,73.07
2019-02-17T02:46:11.716Z,73.15
2019-02-17T02:48:43.779Z,72.45
2019-02-17T02:51:15.007Z,72.51
2019-02-17T02:53:46.684Z,72.65
2019-02-17T02:56:18.629Z,73.13
2019-02-17T02:58:50.605Z,73.42
2019-02-17T03:01:22.496Z,73.88
2019-02-17T03:03:54.308Z,72.59
2019-02-17T03:06:57.088Z,72.18
2019-02-17T03:09:28.800Z,72.30
2019-02-17T03:12:00.869Z,72.18
2019-02-17T03:14:32.449Z,72.39
2019-02-17T03:17:04.144Z,72.72
2019-02-17T03:19:35.492Z,72.75
2019-02-17T03:22:06.841Z,72.60
2019-02-17T03:24:38.809Z,72.53
2019-02-17T03:27:10.994Z,72.72
2019-02-17T03:29:43.436Z,73.36
2019-02-17T03:32:15.374Z,73.70
2019-02-17T03:34:46.819Z,74.10
2019-02-17T03:37:18.409Z,73.21
2019-02-17T03:39:49.817Z,73.52
2019-02-17T03:42:21.099Z,73.28
2019-02-17T03:44:52.494Z,73.43
2019-02-17T03:47:24.769Z,73.95
2019-02-17T03:49:56.059Z,74.37
2019-02-17T03:52:27.642Z,75.24
2019-02-17T03:54:59.082Z,74.42
2019-02-17T03:57:30.381Z,74.61
2019-02-17T04:00:01.849Z,75.99
2019-02-17T04:02:33.709Z,75.71
2019-02-17T04:05:05.101Z,76.09
2019-02-17T04:07:37.128Z,77.08
2019-02-17T04:10:09.251Z,75.77
2019-02-17T04:12:40.748Z,74.65
2019-02-17T04:15:12.819Z,74.35
2019-02-17T04:17:44.171Z,74.22
2019-02-17T04:20:15.555Z,74.77
2019-02-17T04:22:46.883Z,75.28
2019-02-17T04:25:19.112Z,75.87
2019-02-17T04:27:52.624Z,75.29
2019-02-17T04:30:29.318Z,75.20
2019-02-17T04:32:59.028Z,75.23
2019-02-17T04:35:33.181Z,75.04
2019-02-17T04:38:04.836Z,75.01
2019-02-17T04:40:37.989Z,74.92
2019-02-17T04:43:10.054Z,75.06
2019-02-17T04:45:42.185Z,75.21
2019-02-17T04:48:13.809Z,75.72
2019-02-17T04:50:45.708Z,76.22
2019-02-17T04:53:17.013Z,77.64
2019-02-17T04:55:48.455Z,77.80
2019-02-17T04:58:20.115Z,76.45
2019-02-17T05:00:51.451Z,75.61
2019-02-17T05:03:22.812Z,76.39
2019-02-17T05:05:54.625Z,76.95
2019-02-17T05:08:25.934Z,76.18
2019-02-17T05:10:57.275Z,76.22
2019-02-17T05:13:28.571Z,76.92
2019-02-17T05:16:00.224Z,76.55
2019-02-17T05:18:31.989Z,75.79
2019-02-17T05:21:03.697Z,75.73
2019-02-17T05:23:35.264Z,75.71
2019-02-17T05:26:06.951Z,75.96
2019-02-17T05:28:38.861Z,75.93
2019-02-17T05:31:10.536Z,75.88
2019-02-17T05:33:42.255Z,76.20
2019-02-17T05:36:13.551Z,75.99
2019-02-17T05:38:45.702Z,76.17
2019-02-17T05:41:17.027Z,76.51
2019-02-17T05:43:48.342Z,77.23
2019-02-17T05:46:19.611Z,76.28
2019-02-17T05:48:51.335Z,76.51
2019-02-17T05:51:23.307Z,76.72
2019-02-17T05:53:54.932Z,77.65
2019-02-17T05:56:26.596Z,78.77
2019-02-17T05:58:57.918Z,78.37
2019-02-17T06:01:29.595Z,77.28
2019-02-17T06:04:00.957Z,77.02
2019-02-17T06:06:32.689Z,77.20
2019-02-17T06:09:05.728Z,77.45
2019-02-17T06:11:37.546Z,77.06
2019-02-17T06:14:09.273Z,77.59
2019-02-17T06:16:41.022Z,77.96
2019-02-17T06:19:12.672Z,77.61
2019-02-17T06:21:43.975Z,77.52
2019-02-17T06:24:15.318Z,77.00
2019-02-17T06:26:46.648Z,76.74
2019-02-17T06:29:18.467Z,77.51
2019-02-17T06:31:50.141Z,77.27
2019-02-17T06:34:21.504Z,76.98
2019-02-17T06:36:53.084Z,76.98
2019-02-17T06:39:24.648Z,77.60
2019-02-17T06:41:55.979Z,78.45
2019-02-17T06:44:27.950Z,77.58
2019-02-17T06:47:02.439Z,77.30
2019-02-17T06:49:33.918Z,77.06
2019-02-17T06:52:05.222Z,77.08
2019-02-17T06:54:37.033Z,77.14
2019-02-17T06:57:18.363Z,77.09
2019-02-17T06:59:51.580Z,77.36
2019-02-17T07:02:23.172Z,77.57
2019-02-17T07:05:13.323Z,79.01
2019-02-17T07:07:44.668Z,78.67
2019-02-17T07:10:16.168Z,79.00
2019-02-17T07:12:47.525Z,79.21
2019-02-17T07:15:18.846Z,80.03
2019-02-17T07:17:50.200Z,80.14
2019-02-17T07:20:21.970Z,79.83
2019-02-17T07:22:53.919Z,79.77
2019-02-17T07:25:30.032Z,79.77
2019-02-17T07:27:59.780Z,79.88
2019-02-17T07:30:31.368Z,81.02
2019-02-17T07:33:03.344Z,81.62
2019-02-17T07:35:36.005Z,81.24
2019-02-17T07:38:08.451Z,80.70
2019-02-17T07:40:40.056Z,79.39
2019-02-17T07:43:11.492Z,80.26
2019-02-17T07:45:43.063Z,79.46
2019-02-17T07:48:15.395Z,79.64
2019-02-17T07:50:47.724Z,79.81
2019-02-17T07:53:19.354Z,78.79
2019-02-17T07:55:50.568Z,78.66
2019-02-17T07:58:22.185Z,78.87
2019-02-17T08:00:53.504Z,78.40
2019-02-17T08:03:25.486Z,78.15
2019-02-17T08:05:57.098Z,78.26
2019-02-17T08:08:28.776Z,77.88
2019-02-17T08:11:03.990Z,77.31
2019-02-17T08:13:33.789Z,77.21
2019-02-17T08:16:05.023Z,76.86
2019-02-17T08:18:36.327Z,76.00
2019-02-17T08:21:08.979Z,75.55
2019-02-17T08:23:41.371Z,74.60
2019-02-17T08:26:13.315Z,73.81
2019-02-17T08:28:44.792Z,73.03
2019-02-17T08:31:16.213Z,72.79
2019-02-17T08:33:47.540Z,71.93
2019-02-17T08:36:19.222Z,70.89
2019-02-17T08:38:51.185Z,69.83
2019-02-17T08:41:23.112Z,68.57
2019-02-17T08:43:54.469Z,67.88
2019-02-17T08:46:26.318Z,65.71
2019-02-17T08:48:58.272Z,65.43
2019-02-17T08:51:30.355Z,64.24
2019-02-17T08:54:02.501Z,63.94
2019-02-17T08:56:34.275Z,63.37
2019-02-17T08:59:06.043Z,63.10
2019-02-17T09:01:37.661Z,62.21
2019-02-17T09:04:10.244Z,60.67
2019-02-17T09:06:42.754Z,58.56
2019-02-17T09:09:15.145Z,58.11
2019-02-17T09:11:47.222Z,57.88
2019-02-17T09:14:18.508Z,56.65
2019-02-17T09:16:49.804Z,57.10
2019-02-17T09:19:21.065Z,56.81
2019-02-17T09:21:52.501Z,56.42
2019-02-17T09:24:23.805Z,55.09
2019-02-17T09:26:55.828Z,53.98
2019-02-17T09:29:27.538Z,53.03
2019-02-17T09:31:59.504Z,52.36
2019-02-17T09:34:30.854Z,51.29
2019-02-17T09:37:02.223Z,51.50
2019-02-17T09:39:33.758Z,50.96
2019-02-17T09:42:05.226Z,50.52
2019-02-17T09:44:36.898Z,50.59
2019-02-17T09:47:08.719Z,49.00
2019-02-17T09:49:40.394Z,48.09
2019-02-17T09:52:12.500Z,47.64
2019-02-17T09:54:43.872Z,46.83
2019-02-17T09:57:15.181Z,46.24
2019-02-17T09:59:46.988Z,45.24
2019-02-17T10:02:26.269Z,44.79
2019-02-17T10:04:52.245Z,43.71
2019-02-17T10:07:23.956Z,44.49
2019-02-17T10:09:56.083Z,44.07
2019-02-17T10:12:27.758Z,43.88
2019-02-17T10:14:59.393Z,42.71
2019-02-17T10:17:31.039Z,43.33
2019-02-17T10:20:02.376Z,43.29
2019-02-17T10:22:34.362Z,42.41
2019-02-17T10:25:06.392Z,42.49
2019-02-17T10:27:38.795Z,41.99
2019-02-17T10:30:12.969Z,41.56
2019-02-17T10:32:44.548Z,41.52
2019-02-17T10:35:16.174Z,40.84
2019-02-17T10:37:48.228Z,39.98
2019-02-17T10:40:19.614Z,40.09
2019-02-17T10:42:50.904Z,41.03
2019-02-17T10:45:22.252Z,39.96
2019-02-17T10:47:53.507Z,40.28
2019-02-17T10:50:24.856Z,40.22
2019-02-17T10:52:57.922Z,39.46
2019-02-17T10:55:29.542Z,39.07
2019-02-17T10:58:01.195Z,39.00
2019-02-17T11:00:32.952Z,39.68
2019-02-17T11:03:10.391Z,38.67
2019-02-17T11:05:43.506Z,38.65
2019-02-17T11:08:14.911Z,38.57
2019-02-17T11:10:46.851Z,38.65
2019-02-17T11:13:18.450Z,38.50
2019-02-17T11:15:49.804Z,38.49
2019-02-17T11:18:21.108Z,38.40
2019-02-17T11:20:52.764Z,38.38
2019-02-17T11:23:24.420Z,38.51
2019-02-17T11:25:56.078Z,38.61
2019-02-17T11:28:27.749Z,38.27
2019-02-17T11:31:00.648Z,37.92
2019-02-17T11:33:31.992Z,38.45
2019-02-17T11:36:03.266Z,37.41
2019-02-17T11:38:34.711Z,38.44
2019-02-17T11:41:06.040Z,36.81
2019-02-17T11:43:37.764Z,37.74
2019-02-17T11:46:09.159Z,36.67
2019-02-17T11:48:41.104Z,35.48
2019-02-17T11:51:12.631Z,35.71
2019-02-17T11:53:44.028Z,37.04
2019-02-17T11:56:15.325Z,38.49
2019-02-17T11:58:46.619Z,35.14
2019-02-17T12:01:20.523Z,36.04
2019-02-17T12:03:53.982Z,37.26
2019-02-17T12:06:26.300Z,36.43
2019-02-17T12:08:57.607Z,37.70
2019-02-17T12:11:29.703Z,35.91
2019-02-17T12:14:01.355Z,36.01
2019-02-17T12:16:37.009Z,35.86
2019-02-17T12:19:06.523Z,35.74
2019-02-17T12:22:12.635Z,34.96
2019-02-17T12:25:00.739Z,34.48
2019-02-17T12:27:37.759Z,34.01
2019-02-17T12:30:14.169Z,34.61
2019-02-17T12:32:46.860Z,33.92
2019-02-17T12:35:18.615Z,35.44
2019-02-17T12:37:50.275Z,34.92
2019-02-17T12:40:21.596Z,34.40
2019-02-17T12:42:53.637Z,37.29
2019-02-17T12:45:25.250Z,37.06
2019-02-17T12:47:58.405Z,37.53
2019-02-17T12:50:30.476Z,36.01
2019-02-17T12:53:02.451Z,36.08
2019-02-17T12:55:33.759Z,33.26
2019-02-17T12:58:05.772Z,35.86
2019-02-17T13:00:38.385Z,34.19
2019-02-17T13:03:09.798Z,38.50
2019-02-17T13:05:41.353Z,37.92
2019-02-17T13:08:13.253Z,38.80
2019-02-17T13:10:44.832Z,39.45
2019-02-17T13:13:16.217Z,40.05
2019-02-17T13:15:49.289Z,40.63
2019-02-17T13:18:21.445Z,41.27
2019-02-17T13:20:53.856Z,41.54
2019-02-17T13:23:25.598Z,41.92
2019-02-17T13:32:48.334Z,42.35
2019-02-17T13:35:20.749Z,42.02
2019-02-17T13:37:52.468Z,41.89
2019-02-17T13:40:23.862Z,43.77
2019-02-17T13:42:55.206Z,43.56
2019-02-17T13:45:27.174Z,43.02
2019-02-17T13:47:58.811Z,43.38
2019-02-17T13:50:30.504Z,43.82
2019-02-17T13:53:11.425Z,42.76
2019-02-17T13:55:36.354Z,43.84
2019-02-17T13:58:08.778Z,43.61
2019-02-17T14:00:40.921Z,43.63
2019-02-17T14:03:12.399Z,44.05
2019-02-17T14:05:46.252Z,44.05
2019-02-17T14:08:18.190Z,44.38
2019-02-17T14:10:49.898Z,44.75
2019-02-17T14:13:21.215Z,44.50
2019-02-17T14:15:52.818Z,45.86
2019-02-17T14:18:24.286Z,45.62
2019-02-17T14:20:56.255Z,45.36
2019-02-17T14:23:27.614Z,45.51
2019-02-17T14:25:59.036Z,45.65
2019-02-17T14:28:30.415Z,46.23
2019-02-17T14:31:02.789Z,46.08
2019-02-17T14:33:34.580Z,45.94
2019-02-17T14:36:05.888Z,45.97
2019-02-17T14:38:37.280Z,45.75
2019-02-17T14:41:08.788Z,46.94
2019-02-17T14:43:40.442Z,46.02
2019-02-17T14:46:11.757Z,46.57
2019-02-17T14:48:43.814Z,47.36
2019-02-17T14:51:15.126Z,47.18
2019-02-17T14:53:46.506Z,47.91
2019-02-17T14:56:18.264Z,48.10
2019-02-17T14:58:50.519Z,48.38
2019-02-17T15:01:22.227Z,48.32
2019-02-17T15:03:53.631Z,48.79
2019-02-17T15:06:25.016Z,48.84
2019-02-17T15:08:56.363Z,49.33
2019-02-17T15:11:27.701Z,50.16
2019-02-17T15:13:59.016Z,49.90
2019-02-17T15:16:30.836Z,50.40
2019-02-17T15:19:02.548Z,50.74
2019-02-17T15:21:34.341Z,50.76
2019-02-17T15:24:07.871Z,50.76
2019-02-17T15:26:39.154Z,50.86
2019-02-17T15:29:11.389Z,50.71
2019-02-17T15:31:43.352Z,51.35
2019-02-17T15:34:18.747Z,51.09
2019-02-17T15:36:48.365Z,51.84
2019-02-17T15:39:19.632Z,52.58
2019-02-17T15:41:51.724Z,53.25
2019-02-17T15:44:23.051Z,53.80
2019-02-17T15:46:54.947Z,54.25
2019-02-17T15:49:26.251Z,54.43
2019-02-17T15:51:58.548Z,55.21
2019-02-17T15:54:29.920Z,55.69
2019-02-17T15:57:01.423Z,56.40
2019-02-17T15:59:33.170Z,56.95
2019-02-17T16:02:05.234Z,57.70
2019-02-17T16:04:37.112Z,57.91
2019-02-17T16:07:09.249Z,57.97
2019-02-17T16:09:41.002Z,57.51
2019-02-17T16:12:12.671Z,57.65
2019-02-17T16:14:44.200Z,57.89
2019-02-17T16:17:15.818Z,58.17
2019-02-17T16:19:47.892Z,57.99
2019-02-17T16:22:19.224Z,58.02
2019-02-17T16:24:50.565Z,58.56
2019-02-17T16:27:22.232Z,58.32
2019-02-17T16:29:53.870Z,58.40
2019-02-17T16:32:25.289Z,59.01
2019-02-17T16:34:56.628Z,58.82
2019-02-17T16:37:27.924Z,59.58
2019-02-17T16:39:59.229Z,61.40
2019-02-17T16:42:30.922Z,61.57
2019-02-17T16:45:02.194Z,61.99
2019-02-17T16:47:33.874Z,62.82
2019-02-17T16:50:05.733Z,62.86
2019-02-17T16:52:37.379Z,64.03
2019-02-17T16:55:10.502Z,64.41
2019-02-17T16:57:41.891Z,63.94
2019-02-17T17:00:18.965Z,63.76
2019-02-17T17:02:50.709Z,63.17
2019-02-17T17:05:22.673Z,63.33
2019-02-17T17:07:54.040Z,63.24
2019-02-17T17:10:25.975Z,63.36
2019-02-17T17:12:57.292Z,63.85
2019-02-17T17:15:28.949Z,63.95
2019-02-17T17:18:00.549Z,64.53
2019-02-17T17:20:31.878Z,64.77
2019-02-17T17:23:05.124Z,64.74
2019-02-17T17:25:36.870Z,64.90
2019-02-17T17:28:08.591Z,64.92
2019-02-17T17:30:39.953Z,66.14
2019-02-17T17:33:11.439Z,65.53
2019-02-17T17:35:43.539Z,66.13
2019-02-17T17:38:15.743Z,66.69
2019-02-17T17:40:47.071Z,66.56
2019-02-17T17:43:18.928Z,66.21
2019-02-17T17:45:50.633Z,66.75
2019-02-17T17:48:22.292Z,67.14
2019-02-17T17:50:54.015Z,69.04
2019-02-17T17:53:25.688Z,67.26
2019-02-17T17:55:57.008Z,67.37
2019-02-17T17:58:29.013Z,67.60
2019-02-17T18:01:00.377Z,68.74
2019-02-17T18:03:32.797Z,70.57
2019-02-17T18:06:04.221Z,71.24
2019-02-17T18:08:35.885Z,70.54
2019-02-17T18:11:08.474Z,71.02
2019-02-17T18:13:40.474Z,72.64
2019-02-17T18:16:12.323Z,69.72
2019-02-17T18:18:44.547Z,69.20
2019-02-17T18:21:16.216Z,69.57
2019-02-17T18:23:48.032Z,69.95
2019-02-17T18:26:19.372Z,71.34
2019-02-17T18:28:50.855Z,69.88
2019-02-17T18:31:22.176Z,69.42
2019-02-17T18:33:53.480Z,70.14
2019-02-17T18:36:25.141Z,69.97
2019-02-17T18:38:58.035Z,69.77
2019-02-17T18:41:29.337Z,70.03
2019-02-17T18:44:02.462Z,70.41
2019-02-17T18:46:33.830Z,70.36
2019-02-17T18:49:05.830Z,70.25
2019-02-17T18:51:37.786Z,70.17
2019-02-17T18:54:09.499Z,70.39
2019-02-17T18:56:41.147Z,71.33
2019-02-17T18:59:13.067Z,70.73
2019-02-17T19:01:46.749Z,71.00
2019-02-17T19:04:18.867Z,71.21
2019-02-17T19:06:50.248Z,71.23
2019-02-17T19:09:21.972Z,72.48
2019-02-17T19:11:56.909Z,72.18
2019-02-17T19:14:28.256Z,72.05
2019-02-17T19:16:59.714Z,71.46
2019-02-17T19:19:31.344Z,72.08
2019-02-17T19:22:02.675Z,71.86
2019-02-17T19:24:34.025Z,72.15
2019-02-17T19:27:05.337Z,72.12
2019-02-17T19:29:36.810Z,72.64
2019-02-17T19:32:08.835Z,72.28
2019-02-17T19:34:40.448Z,72.57
2019-02-17T19:37:12.262Z,74.13
2019-02-17T19:39:43.911Z,75.25
2019-02-17T19:42:15.316Z,74.17
2019-02-17T19:44:47.072Z,73.37
2019-02-17T19:47:18.575Z,73.35
2019-02-17T19:49:49.884Z,73.27
2019-02-17T19:52:21.549Z,72.86
2019-02-17T19:54:53.242Z,72.96
2019-02-17T19:57:25.502Z,75.79
2019-02-17T19:59:56.926Z,73.84
2019-02-17T20:02:47.015Z,73.46
2019-02-17T20:05:20.482Z,73.34
2019-02-17T20:07:52.883Z,73.47
2019-02-17T20:10:24.635Z,75.20
2019-02-17T20:12:55.992Z,74.10
2019-02-17T20:15:29.907Z,74.13
2019-02-17T20:18:01.616Z,74.77
2019-02-17T20:20:33.458Z,73.86
2019-02-17T20:23:05.140Z,74.16
2019-02-17T20:25:36.884Z,73.63
2019-02-17T20:28:08.439Z,73.63
2019-02-17T20:30:39.780Z,73.53
2019-02-17T20:33:11.074Z,73.34
2019-02-17T20:35:43.776Z,73.58
2019-02-17T20:38:15.405Z,75.05
2019-02-17T20:40:47.065Z,73.83
2019-02-17T20:43:18.403Z,74.85
2019-02-17T20:45:50.020Z,73.88
2019-02-17T20:48:21.430Z,76.54
2019-02-17T20:50:52.787Z,75.78
2019-02-17T20:53:24.162Z,74.69
2019-02-17T20:55:55.429Z,74.49
2019-02-17T20:58:27.227Z,74.52
2019-02-17T21:00:58.899Z,74.55
2019-02-17T21:03:30.192Z,74.46
2019-02-17T21:06:01.635Z,74.44
2019-02-17T21:08:33.308Z,74.58
2019-02-17T21:11:05.152Z,74.76
2019-02-17T21:13:36.910Z,74.74
2019-02-17T21:19:00.289Z,75.00
2019-02-17T21:21:31.783Z,74.61
2019-02-17T21:24:03.432Z,74.98
2019-02-17T21:26:34.911Z,75.02
2019-02-17T21:29:06.627Z,74.88
2019-02-17T21:31:37.921Z,75.02
2019-02-17T21:34:09.361Z,74.93
2019-02-17T21:36:40.991Z,75.22
2019-02-17T21:39:12.294Z,75.62
2019-02-17T21:41:43.939Z,76.71
2019-02-17T21:44:16.685Z,75.66
2019-02-17T21:46:48.356Z,76.45
2019-02-17T21:49:19.706Z,75.71
2019-02-17T21:51:51.049Z,75.34
2019-02-17T21:54:22.397Z,74.81
2019-02-17T21:56:54.122Z,75.09
2019-02-17T21:59:25.417Z,75.13
2019-02-17T22:01:57.093Z,75.94
2019-02-17T22:04:28.767Z,75.90
2019-02-17T22:07:00.134Z,75.60
2019-02-17T22:09:31.434Z,76.96
2019-02-17T22:12:03.142Z,76.50
2019-02-17T22:14:34.571Z,75.94
2019-02-17T22:17:05.879Z,77.67
2019-02-17T22:19:37.607Z,76.81
2019-02-17T22:22:11.695Z,76.35
2019-02-17T22:24:42.747Z,76.48
2019-02-17T22:27:14.072Z,76.21
2019-02-17T22:29:45.377Z,76.35
2019-02-17T22:32:16.753Z,76.31
2019-02-17T22:34:48.825Z,76.58
2019-02-17T22:37:20.294Z,76.83
2019-02-17T22:39:51.852Z,76.58
2019-02-17T22:42:23.776Z,78.02
2019-02-17T22:44:55.962Z,78.18
2019-02-17T22:47:27.838Z,78.41
2019-02-17T22:49:59.163Z,78.64
2019-02-17T22:52:30.553Z,77.14
2019-02-17T22:55:02.515Z,76.93
2019-02-17T22:57:40.592Z,77.28
2019-02-17T23:00:41.077Z,77.11
2019-02-17T23:03:15.349Z,76.95
2019-02-17T23:05:47.106Z,76.72
2019-02-17T23:08:18.876Z,76.72
2019-02-17T23:10:50.281Z,76.80
2019-02-17T23:13:22.684Z,76.89
2019-02-17T23:15:54.305Z,77.01
2019-02-17T23:18:25.637Z,77.56
2019-02-17T23:20:59.326Z,78.02
2019-02-17T23:23:32.010Z,77.69
2019-02-17T23:26:03.335Z,79.06
2019-02-17T23:28:38.878Z,78.80
2019-02-17T23:31:10.543Z,79.30
2019-02-17T23:33:43.531Z,78.75
2019-02-17T23:36:20.110Z,78.09
2019-02-17T23:38:54.137Z,78.15
2019-02-17T23:41:28.275Z,78.71
2019-02-17T23:44:00.932Z,79.42
2019-02-17T23:46:32.876Z,78.06
2019-02-17T23:49:04.828Z,78.20
2019-02-17T23:51:36.596Z,79.63
2019-02-17T23:54:07.874Z,78.52
2019-02-17T23:56:39.235Z,78.03
2019-02-17T23:59:10.914Z,77.82
